DEERH EDMA-EDDM

Flight info

Callsign DEERH
Flight time 0h 26m
Altitude
Route
Aircraft DA40

Departure

Time 2026-05-07 19:32
Airport Augsburg Airport (EDMA)

Arrival

Time 2026-05-07 19:58
Airport Munich Airport (EDDM)
Time Latitude Longitude Altitude Speed Heading
2026-05-07 19:31 48.42292 10.92238 1649 ft 111 kts 67°
2026-05-07 19:31 48.42506 10.93141 1521 ft 68 kts 68°
2026-05-07 19:32 48.42717 10.93939 1744 ft 93 kts 62°
2026-05-07 19:32 48.42578 10.94808 2183 ft 94 kts 117°
2026-05-07 19:32 48.42342 10.95769 2592 ft 100 kts 104°
2026-05-07 19:32 48.42122 10.96810 2866 ft 111 kts 105°
2026-05-07 19:33 48.41882 10.97987 3029 ft 120 kts 106°
2026-05-07 19:33 48.41535 10.99171 3124 ft 129 kts 114°
2026-05-07 19:33 48.41131 11.00385 3235 ft 130 kts 115°
2026-05-07 19:33 48.40715 11.01582 3308 ft 133 kts 117°
2026-05-07 19:34 48.40281 11.02795 3469 ft 127 kts 116°
2026-05-07 19:34 48.39879 11.04031 3524 ft 131 kts 114°
2026-05-07 19:34 48.39492 11.05271 3559 ft 137 kts 114°
2026-05-07 19:34 48.39293 11.05901 3460 ft 143 kts 113°
2026-05-07 19:36 48.39238 11.06081 3454 ft 142 kts 113°
2026-05-07 19:36 48.38804 11.07322 3570 ft 137 kts 117°
2026-05-07 19:36 48.38355 11.08513 3804 ft 125 kts 116°
2026-05-07 19:36 48.37964 11.09738 3718 ft 139 kts 115°
2026-05-07 19:37 48.37579 11.11033 3805 ft 135 kts 110°
2026-05-07 19:37 48.37202 11.12382 3703 ft 141 kts 112°
2026-05-07 19:37 48.36867 11.13816 3513 ft 144 kts 112°
2026-05-07 19:37 48.36255 11.14991 3470 ft 141 kts 132°
2026-05-07 19:38 48.35560 11.16032 3421 ft 142 kts 136°
2026-05-07 19:38 48.34822 11.17026 3342 ft 135 kts 138°
2026-05-07 19:38 48.34098 11.17922 3324 ft 133 kts 140°
2026-05-07 19:38 48.33341 11.18771 3227 ft 136 kts 142°
2026-05-07 19:39 48.32606 11.19696 3089 ft 137 kts 138°
2026-05-07 19:39 48.31863 11.20595 2981 ft 137 kts 139°
2026-05-07 19:39 48.31115 11.21481 2843 ft 140 kts 139°
2026-05-07 19:39 48.30365 11.22430 2693 ft 139 kts 138°
2026-05-07 19:40 48.29665 11.23308 2758 ft 130 kts 139°
2026-05-07 19:40 48.28961 11.24227 2649 ft 135 kts 135°
2026-05-07 19:40 48.28265 11.25245 2454 ft 138 kts 132°
2026-05-07 19:40 48.27652 11.26268 2562 ft 122 kts 129°
2026-05-07 19:41 48.27123 11.27274 2591 ft 128 kts 122°
2026-05-07 19:41 48.26645 11.28360 2753 ft 122 kts 122°
2026-05-07 19:41 48.26170 11.29428 2834 ft 124 kts 121°
2026-05-07 19:41 48.25722 11.30563 2950 ft 105 kts 115°
2026-05-07 19:42 48.25374 11.31618 3107 ft 118 kts 114°
2026-05-07 19:42 48.25027 11.32759 3212 ft 120 kts 113°
2026-05-07 19:42 48.24658 11.33944 3177 ft 129 kts 113°
2026-05-07 19:42 48.24280 11.35122 3320 ft 120 kts 124°
2026-05-07 19:43 48.23818 11.36220 3207 ft 128 kts 91°
2026-05-07 19:43 48.23849 11.37586 2914 ft 130 kts 70°
2026-05-07 19:43 48.23653 11.38859 2899 ft 126 kts 113°
2026-05-07 19:43 48.23438 11.39571 2999 ft 122 kts 111°
2026-05-07 19:44 48.23227 11.40317 3022 ft 125 kts 110°
2026-05-07 19:44 48.22972 11.41337 3084 ft 124 kts 107°
2026-05-07 19:44 48.22950 11.41435 3100 ft 124 kts 107°
2026-05-07 19:45 48.22816 11.42018 3159 ft 123 kts 106°
2026-05-07 19:45 48.22604 11.43216 3309 ft 117 kts 93°
2026-05-07 19:45 48.22543 11.44752 3419 ft 119 kts 92°
2026-05-07 19:46 48.22472 11.45913 3532 ft 120 kts 95°
2026-05-07 19:46 48.22463 11.46043 3534 ft 121 kts 95°
2026-05-07 19:46 48.22413 11.47393 3390 ft 132 kts 89°
2026-05-07 19:46 48.22393 11.48698 3549 ft 122 kts 89°
2026-05-07 19:47 48.22409 11.49987 3606 ft 123 kts 88°
2026-05-07 19:47 48.22400 11.51247 3748 ft 122 kts 90°
2026-05-07 19:47 48.22351 11.52548 3801 ft 123 kts 91°
2026-05-07 19:47 48.22316 11.53896 3645 ft 135 kts 90°
2026-05-07 19:48 48.22286 11.55291 3659 ft 128 kts 92°
2026-05-07 19:48 48.22281 11.56606 3741 ft 126 kts 87°
2026-05-07 19:48 48.22317 11.57889 3834 ft 124 kts 85°
2026-05-07 19:48 48.22339 11.59198 3820 ft 131 kts 88°
2026-05-07 19:49 48.22376 11.60524 3931 ft 123 kts 87°
2026-05-07 19:49 48.22388 11.61811 4012 ft 125 kts 89°
2026-05-07 19:49 48.22446 11.63135 3953 ft 131 kts 85°
2026-05-07 19:49 48.22532 11.64636 3221 ft 162 kts 84°
2026-05-07 19:50 48.22597 11.66117 3437 ft 127 kts 85°
2026-05-07 19:50 48.22678 11.67402 3580 ft 118 kts 81°
2026-05-07 19:50 48.22846 11.68684 3539 ft 128 kts 77°
2026-05-07 19:50 48.23039 11.70027 3445 ft 134 kts 77°
2026-05-07 19:51 48.23247 11.71412 3295 ft 137 kts 76°
2026-05-07 19:51 48.23493 11.72811 3100 ft 139 kts 73°
2026-05-07 19:51 48.23768 11.74158 3046 ft 132 kts 64°
2026-05-07 19:51 48.24162 11.75376 3043 ft 129 kts 65°
2026-05-07 19:52 48.24459 11.76648 2987 ft 131 kts 75°
2026-05-07 19:52 48.24808 11.77867 2968 ft 130 kts 44°
2026-05-07 19:52 48.25523 11.78619 2997 ft 125 kts 19°
2026-05-07 19:52 48.26359 11.78966 2920 ft 130 kts 13°
2026-05-07 19:53 48.27237 11.79213 2941 ft 126 kts
2026-05-07 19:53 48.28091 11.79391 2883 ft 124 kts
2026-05-07 19:53 48.28937 11.79533 2840 ft 118 kts
2026-05-07 19:53 48.29745 11.79660 2825 ft 117 kts
2026-05-07 19:54 48.30571 11.79725 2728 ft 119 kts
2026-05-07 19:54 48.31329 11.79791 2713 ft 94 kts
2026-05-07 19:54 48.31898 11.79870 2673 ft 70 kts
2026-05-07 19:54 48.32308 11.79996 2710 ft 65 kts 316°
2026-05-07 19:55 48.32068 11.79784 2794 ft 87 kts 107°
2026-05-07 19:55 48.32086 11.80789 2802 ft 105 kts 85°
2026-05-07 19:55 48.32152 11.81822 2792 ft 95 kts 69°
2026-05-07 19:55 48.32553 11.82730 2706 ft 112 kts 53°
2026-05-07 19:56 48.32772 11.83395 2792 ft 103 kts 64°
2026-05-07 19:56 48.33077 11.84348 2792 ft 91 kts 60°
2026-05-07 19:56 48.33417 11.85001 2680 ft 70 kts 52°
2026-05-07 19:56 48.33856 11.84915 2670 ft 89 kts 327°
2026-05-07 19:57 48.34402 11.84259 2550 ft 96 kts 312°
2026-05-07 19:57 48.34662 11.83406 2201 ft 88 kts 280°
2026-05-07 19:57 48.34628 11.82432 1860 ft 94 kts 263°
2026-05-07 19:57 48.34539 11.81478 1656 ft 86 kts 265°
2026-05-07 19:58 48.34492 11.80679 1584 ft 73 kts 266°
2026-05-07 19:58 48.34445 11.79986 1491 ft 57 kts 265°
2026-05-07 19:58 48.34414 11.79504 1480 ft 49 kts 266°
2026-05-07 19:58 48.34259 11.78796 1746 ft 81 kts 200°
2026-05-07 19:59 48.33642 11.78589 1950 ft 82 kts 186°
2026-05-07 19:59 48.33100 11.78774 2017 ft 76 kts 164°
2026-05-07 19:59 48.32574 11.78910 2152 ft 87 kts 177°
2026-05-07 19:59 48.31901 11.78888 2465 ft 98 kts 176°
2026-05-07 20:00 48.31186 11.79078 2673 ft 114 kts 169°
2026-05-07 20:00 48.30358 11.79387 2795 ft 125 kts 164°
2026-05-07 20:00 48.29520 11.79720 3037 ft 121 kts 165°
2026-05-07 20:00 48.28726 11.80029 3350 ft 119 kts 167°
2026-05-07 20:01 48.27901 11.80254 3569 ft 122 kts 172°
2026-05-07 20:01 48.27065 11.80452 3819 ft 119 kts 170°
2026-05-07 20:01 48.26185 11.80690 3829 ft 128 kts 171°
2026-05-07 20:01 48.25726 11.79954 3879 ft 124 kts 274°
2026-05-07 20:02 48.25675 11.78687 3980 ft 128 kts 263°
2026-05-07 20:02 48.25582 11.77348 4114 ft 120 kts 265°
2026-05-07 20:02 48.25518 11.76086 4281 ft 122 kts 266°
2026-05-07 20:02 48.25505 11.74850 4580 ft 109 kts 267°
2026-05-07 20:03 48.25382 11.73778 4895 ft 108 kts 259°
2026-05-07 20:03 48.25240 11.72564 4966 ft 117 kts 261°
2026-05-07 20:03 48.25126 11.71373 5202 ft 113 kts 264°
2026-05-07 20:03 48.25036 11.70188 5391 ft 113 kts 263°
2026-05-07 20:04 48.24967 11.69025 5595 ft 114 kts 269°
2026-05-07 20:04 48.24880 11.67791 5545 ft 127 kts 256°
2026-05-07 20:04 48.24692 11.66587 5785 ft 116 kts 256°
2026-05-07 20:04 48.24460 11.65379 5847 ft 119 kts 256°
2026-05-07 20:05 48.24233 11.64181 5945 ft 120 kts 252°
2026-05-07 20:05 48.23929 11.63067 6155 ft 116 kts 242°
2026-05-07 20:05 48.23446 11.62098 6292 ft 117 kts 237°
2026-05-07 20:05 48.23138 11.60968 6398 ft 115 kts 269°
2026-05-07 20:06 48.23292 11.59792 6474 ft 120 kts 281°
2026-05-07 20:06 48.23439 11.58560 6583 ft 117 kts 274°
2026-05-07 20:06 48.23412 11.57345 6688 ft 118 kts 264°
2026-05-07 20:06 48.23346 11.56149 6875 ft 112 kts 265°
2026-05-07 20:07 48.23411 11.54996 7017 ft 112 kts 277°
2026-05-07 20:07 48.23532 11.53887 7287 ft 103 kts 274°
2026-05-07 20:07 48.23563 11.52778 7393 ft 113 kts 269°
2026-05-07 20:07 48.23452 11.51541 7330 ft 122 kts 253°
2026-05-07 20:08 48.23106 11.50436 7464 ft 115 kts 258°
2026-05-07 20:08 48.23411 11.49294 7350 ft 127 kts 303°
2026-05-07 20:08 48.23787 11.48188 7476 ft 120 kts 291°
2026-05-07 20:08 48.24134 11.47066 7639 ft 110 kts 290°
2026-05-07 20:09 48.24369 11.45956 7705 ft 116 kts 277°
2026-05-07 20:09 48.24477 11.44768 7853 ft 111 kts 281°
2026-05-07 20:09 48.24749 11.43664 7864 ft 119 kts 298°
2026-05-07 20:10 48.25629 11.41551 7997 ft 117 kts 295°
2026-05-07 20:10 48.25991 11.40474 8129 ft 112 kts 288°
2026-05-07 20:10 48.26237 11.39373 8231 ft 113 kts 285°
2026-05-07 20:10 48.26565 11.38330 8433 ft 106 kts 291°
2026-05-07 20:11 48.26842 11.37321 8626 ft 102 kts 285°
2026-05-07 20:11 48.27059 11.36346 8906 ft 98 kts 289°
2026-05-07 20:11 48.27363 11.35291 8838 ft 110 kts 288°
2026-05-07 20:11 48.27648 11.34313 9111 ft 106 kts 290°
2026-05-07 20:12 48.27993 11.33259 9170 ft 109 kts 294°
2026-05-07 20:12 48.28394 11.32221 9014 ft 125 kts 297°
2026-05-07 20:12 48.28846 11.31120 8998 ft 120 kts 296°
2026-05-07 20:12 48.29338 11.30045 8864 ft 127 kts 301°
2026-05-07 20:13 48.29863 11.28966 8866 ft 120 kts 301°
2026-05-07 20:13 48.30363 11.27904 8714 ft 128 kts 298°
2026-05-07 20:13 48.30851 11.26717 8440 ft 135 kts 295°
2026-05-07 20:13 48.31294 11.25423 7851 ft 151 kts 294°
2026-05-07 20:14 48.31798 11.24037 7555 ft 143 kts 299°
2026-05-07 20:14 48.32311 11.22741 7084 ft 150 kts 298°
2026-05-07 20:14 48.32871 11.21351 6294 ft 163 kts 300°
2026-05-07 20:14 48.33443 11.19910 5771 ft 156 kts 300°
2026-05-07 20:15 48.34016 11.18510 5342 ft 154 kts 302°
2026-05-07 20:15 48.34628 11.17185 4951 ft 152 kts 306°
2026-05-07 20:15 48.35269 11.15842 4391 ft 155 kts 304°
2026-05-07 20:15 48.35878 11.14566 4155 ft 150 kts 306°
2026-05-07 20:16 48.36482 11.13294 3846 ft 150 kts 305°
2026-05-07 20:16 48.37094 11.12001 3557 ft 151 kts 307°
2026-05-07 20:16 48.37696 11.10725 3320 ft 150 kts 303°
2026-05-07 20:16 48.38173 11.09396 3224 ft 146 kts 292°
2026-05-07 20:17 48.38498 11.07939 3078 ft 143 kts 296°
2026-05-07 20:17 48.38930 11.06596 3001 ft 141 kts 296°
2026-05-07 20:17 48.39328 11.05238 2919 ft 142 kts 288°
2026-05-07 20:17 48.39636 11.03807 2725 ft 141 kts 289°
2026-05-07 20:18 48.39876 11.02420 2526 ft 133 kts 282°
2026-05-07 20:18 48.40005 11.01068 2397 ft 128 kts 278°
2026-05-07 20:18 48.40173 10.99849 2439 ft 114 kts 296°
2026-05-07 20:18 48.40511 10.98761 2402 ft 115 kts 296°
2026-05-07 20:19 48.40740 10.97650 2446 ft 111 kts 271°
2026-05-07 20:19 48.40651 10.96465 2402 ft 115 kts 262°
2026-05-07 20:19 48.40535 10.95282 2436 ft 113 kts 264°
2026-05-07 20:19 48.40469 10.94127 2499 ft 110 kts 268°
2026-05-07 20:20 48.40429 10.92964 2512 ft 113 kts 272°
2026-05-07 20:20 48.40444 10.91759 2476 ft 114 kts 276°
2026-05-07 20:20 48.40594 10.90608 2541 ft 110 kts 294°
2026-05-07 20:20 48.41189 10.89970 2360 ft 117 kts 354°
2026-05-07 20:21 48.41860 10.90268 2064 ft 93 kts 48°
2026-05-07 20:21 48.42052 10.91089 1775 ft 78 kts 73°
2026-05-07 20:21 48.42197 10.91759 1639 ft 59 kts 69°
2026-05-07 20:21 48.42323 10.92315 1552 ft 57 kts 71°
2026-05-07 20:22 48.42434 10.92789 1514 ft 39 kts 66°
2026-05-07 20:22 48.42508 10.93113 1514 ft 28 kts 72°
2026-05-07 20:22 48.42564 10.93369 1516 ft 24 kts 71°
2026-05-07 20:22 48.42595 10.93538 1516 ft 10 kts 80°
2026-05-07 20:23 48.42579 10.93625 1518 ft 13 kts 162°
2026-05-07 20:23 48.42468 10.93682 1516 ft 19 kts 172°
2026-05-07 20:23 48.42398 10.93700 1516 ft 5 kts 253°
2026-05-07 20:23 48.42351 10.93486 1516 ft 25 kts 252°
2026-05-07 20:24 48.42294 10.93228 1516 ft 27 kts 252°
2026-05-07 20:24 48.42263 10.93080 1516 ft 11 kts 285°
2026-05-07 20:24 48.42291 10.93056 1516 ft 0 kts 342°